Historyczne dane pomiarowe

Dodano dane terminowe – wersja testowa.

Dane z okresu 1951-2019

Wersja bazy: 1.34 [2019-03-16, lista zmian], aktualizacja planowana na 2019-04-15

Dane meteo z obszaru Polski uzyskane na podstawie danych udostępnionych przez Instytut Meteorologii i Gospodarki Wodnej – Państwowy Instytut Badawczy.

 

Wybierz Datę:    

       

TemperaturaWilgotnośćWiatrCiśnienieOpadyŚniegCzas trwania zjawisk
 Stacja t tx tn tng RH VA  wxwx mslp ppp RRR   cm mm wxwxwxwxwxwxwx
2017-08-13 16.1 19.2 13.7 12.9-- 5.0 2.0---- 0.0------------
2017-08-14 17.1 24.7 9.0 7.0-- 6.0 1.0---- 0.0------------
2017-08-15 16.7 24.7 9.0 7.0-- 4.3 1.0---- 0.0------------
2017-08-16 18.5 28.7 9.0 7.0-- 4.0 1.0---- 0.0------------
2017-08-17 21.0 28.3 15.8 11.9-- 4.3 0.7---- 0.0------------
2017-08-18 22.9 30.7 14.9 12.4-- 4.0 1.3---- 0.0------------
2017-08-19 21.8 31.2 15.5 15.9-- 7.7 3.0---- 41.5------------
2017-08-20 15.4 17.3 14.0 12.3-- 7.3 2.0---- 19.0------------
2017-08-21 14.4 19.7 10.3 9.6-- 7.0 2.3---- 4.7------------
2017-08-22 15.1 20.3 10.0 9.6-- 7.3 3.7---- 0.0------------
2017-08-23 14.3 19.7 9.5 8.6-- 6.0 4.3---- 2.9------------
2017-08-24 16.6 23.3 10.7 9.0-- 5.7 3.0---- 0.0------------
2017-08-25 19.7 25.7 14.8 12.9-- 4.7 2.0---- 0.0------------
2017-08-26 19.0 25.0 13.4 12.9-- 7.0 0.7---- 1.6------------
2017-08-27 21.0 29.2 12.9 11.9-- 5.7 3.0---- 0.0------------
2017-08-28 16.7 22.8 11.9 10.4-- 6.0 3.0---- 0.0------------
2017-08-29 14.5 21.7 8.2 6.5-- 5.7 1.0---- 0.0------------
2017-08-30 15.9 25.7 6.3 4.7-- 4.7 0.3---- 0.0------------
2017-08-31 19.2 27.7 11.7 9.6-- 3.0 1.0---- 0.0------------
2017-09-01 19.0 27.2 12.1 9.0-- 6.0 0.7---- 0.0------------
2017-09-02 15.9 22.1 12.9 12.9-- 6.0 3.3---- 17.1------------
2017-09-03 12.7 15.0 10.6 10.6-- 7.3 1.7---- 4.4------------
2017-09-04 14.3 18.7 10.9 10.9-- 7.3 4.7---- 0.8------------
2017-09-05 13.0 15.7 10.9 9.8-- 7.7 5.0---- 4.3------------
2017-09-06 15.2 19.7 10.9 10.5-- 7.3 2.7---- 2.1------------
2017-09-07 14.9 18.7 12.5 10.5-- 6.0 4.7---- 0.0------------
2017-09-08 16.0 21.1 11.1 9.5-- 6.0 3.3---- 0.0------------
2017-09-09 18.8 24.5 12.6 11.0-- 5.0 3.0---- 0.0------------
2017-09-10 21.1 26.0 16.9 15.9-- 5.7 3.7---- 0.0------------
2017-09-11 22.1 26.7 18.9 17.6-- 5.0 3.3---- 0.0------------
185.3 ms

 

Źródłem pochodzenia danych jest Instytut Meteorologii i Gospodarki Wodnej – Państwowy Instytut Badawczy. Dane Instytutu Meteorologii i Gospodarki Wodnej – Państwowego Instytutu Badawczego zostały przetworzone.

Dane źródłowe można odnaleźć na stronie https://dane.imgw.pl